sensor_id;sensor_type;location;lat;lon;timestamp;pressure;altitude;pressure_sealevel;temperature;humidity
36258;BME280;22294;52.044;4.582;2023-01-26T00:00:28;78804.69;;;-144.37;100.00
36258;BME280;22294;52.044;4.582;2023-01-26T00:02:55;78802.63;;;-144.37;100.00
36258;BME280;22294;52.044;4.582;2023-01-26T00:05:20;78792.41;;;-144.37;100.00
36258;BME280;22294;52.044;4.582;2023-01-26T00:07:45;78800.59;;;-144.37;100.00
36258;BME280;22294;52.044;4.582;2023-01-26T00:10:11;78804.69;;;-144.37;100.00
36258;BME280;22294;52.044;4.582;2023-01-26T00:12:37;78800.59;;;-144.37;100.00
36258;BME280;22294;52.044;4.582;2023-01-26T00:15:02;78794.44;;;-144.37;100.00
36258;BME280;22294;52.044;4.582;2023-01-26T00:17:27;78794.44;;;-144.37;100.00
36258;BME280;22294;52.044;4.582;2023-01-26T00:19:57;78786.25;;;-144.37;100.00
36258;BME280;22294;52.044;4.582;2023-01-26T00:22:25;78784.22;;;-144.37;100.00
36258;BME280;22294;52.044;4.582;2023-01-26T00:24:50;78780.13;;;-144.37;100.00
36258;BME280;22294;52.044;4.582;2023-01-26T00:27:16;78782.16;;;-144.37;100.00
36258;BME280;22294;52.044;4.582;2023-01-26T00:29:42;78782.16;;;-144.37;100.00
36258;BME280;22294;52.044;4.582;2023-01-26T00:32:07;78773.97;;;-144.37;100.00
36258;BME280;22294;52.044;4.582;2023-01-26T00:34:33;78769.88;;;-144.37;100.00
36258;BME280;22294;52.044;4.582;2023-01-26T00:36:58;78767.84;;;-144.37;100.00
36258;BME280;22294;52.044;4.582;2023-01-26T00:39:23;78761.69;;;-144.37;100.00
36258;BME280;22294;52.044;4.582;2023-01-26T00:41:49;78767.84;;;-144.37;100.00
36258;BME280;22294;52.044;4.582;2023-01-26T00:44:36;78763.75;;;-144.37;100.00
36258;BME280;22294;52.044;4.582;2023-01-26T00:47:04;78757.59;;;-144.37;100.00
36258;BME280;22294;52.044;4.582;2023-01-26T00:49:29;78751.47;;;-144.37;100.00
36258;BME280;22294;52.044;4.582;2023-01-26T00:51:54;78749.41;;;-144.37;100.00
36258;BME280;22294;52.044;4.582;2023-01-26T00:54:20;78747.38;;;-144.37;100.00
36258;BME280;22294;52.044;4.582;2023-01-26T00:56:45;78751.47;;;-144.37;100.00
36258;BME280;22294;52.044;4.582;2023-01-26T00:59:10;78743.28;;;-144.37;100.00
36258;BME280;22294;52.044;4.582;2023-01-26T01:01:36;78743.28;;;-144.37;100.00
36258;BME280;22294;52.044;4.582;2023-01-26T01:04:01;78741.25;;;-144.37;100.00
36258;BME280;22294;52.044;4.582;2023-01-26T01:06:26;78743.28;;;-144.37;100.00
36258;BME280;22294;52.044;4.582;2023-01-26T01:08:52;78737.16;;;-144.37;100.00
36258;BME280;22294;52.044;4.582;2023-01-26T01:11:17;78724.88;;;-144.37;100.00
36258;BME280;22294;52.044;4.582;2023-01-26T01:13:42;78735.09;;;-144.37;100.00
36258;BME280;22294;52.044;4.582;2023-01-26T01:16:11;78724.88;;;-144.37;100.00
36258;BME280;22294;52.044;4.582;2023-01-26T01:18:36;78724.88;;;-144.37;100.00
36258;BME280;22294;52.044;4.582;2023-01-26T01:21:21;78714.63;;;-144.37;100.00
36258;BME280;22294;52.044;4.582;2023-01-26T01:23:46;78718.72;;;-144.37;100.00
36258;BME280;22294;52.044;4.582;2023-01-26T01:26:13;78720.78;;;-144.37;100.00
36258;BME280;22294;52.044;4.582;2023-01-26T01:28:38;78716.69;;;-144.37;100.00
36258;BME280;22294;52.044;4.582;2023-01-26T01:31:05;78720.78;;;-144.37;100.00
36258;BME280;22294;52.044;4.582;2023-01-26T01:33:31;78720.78;;;-144.37;100.00
36258;BME280;22294;52.044;4.582;2023-01-26T01:36:01;78724.88;;;-144.37;100.00
36258;BME280;22294;52.044;4.582;2023-01-26T01:38:27;78726.91;;;-144.37;100.00
36258;BME280;22294;52.044;4.582;2023-01-26T01:40:54;78731.00;;;-144.37;100.00
36258;BME280;22294;52.044;4.582;2023-01-26T01:43:20;78728.97;;;-144.37;100.00
36258;BME280;22294;52.044;4.582;2023-01-26T01:45:49;78722.81;;;-144.37;100.00
36258;BME280;22294;52.044;4.582;2023-01-26T01:48:26;78722.81;;;-144.37;100.00
36258;BME280;22294;52.044;4.582;2023-01-26T01:50:58;78726.91;;;-144.37;100.00
36258;BME280;22294;52.044;4.582;2023-01-26T01:53:30;78726.91;;;-144.37;100.00
36258;BME280;22294;52.044;4.582;2023-01-26T01:56:00;78728.97;;;-144.37;100.00
36258;BME280;22294;52.044;4.582;2023-01-26T01:58:28;78722.81;;;-144.37;100.00
36258;BME280;22294;52.044;4.582;2023-01-26T02:00:56;78716.69;;;-144.37;100.00
36258;BME280;22294;52.044;4.582;2023-01-26T02:03:23;78722.81;;;-144.37;100.00
36258;BME280;22294;52.044;4.582;2023-01-26T02:08:36;78728.97;;;-144.37;100.00
36258;BME280;22294;52.044;4.582;2023-01-26T02:11:10;78724.88;;;-144.37;100.00
36258;BME280;22294;52.044;4.582;2023-01-26T02:13:37;78731.00;;;-144.37;100.00
36258;BME280;22294;52.044;4.582;2023-01-26T02:16:04;78724.88;;;-144.37;100.00
36258;BME280;22294;52.044;4.582;2023-01-26T02:18:30;78716.69;;;-144.37;100.00
36258;BME280;22294;52.044;4.582;2023-01-26T02:21:01;78716.69;;;-144.37;100.00
36258;BME280;22294;52.044;4.582;2023-01-26T02:23:39;78718.72;;;-144.37;100.00
36258;BME280;22294;52.044;4.582;2023-01-26T02:26:17;78706.44;;;-144.37;100.00
36258;BME280;22294;52.044;4.582;2023-01-26T02:28:43;78716.69;;;-144.37;100.00
36258;BME280;22294;52.044;4.582;2023-01-26T02:31:10;78712.59;;;-144.37;100.00
36258;BME280;22294;52.044;4.582;2023-01-26T02:33:35;78710.53;;;-144.37;100.00
36258;BME280;22294;52.044;4.582;2023-01-26T02:36:01;78712.59;;;-144.37;100.00
36258;BME280;22294;52.044;4.582;2023-01-26T02:38:32;78714.63;;;-144.37;100.00
36258;BME280;22294;52.044;4.582;2023-01-26T02:41:02;78716.69;;;-144.37;100.00
36258;BME280;22294;52.044;4.582;2023-01-26T02:43:30;78712.59;;;-144.37;100.00
36258;BME280;22294;52.044;4.582;2023-01-26T02:45:56;78714.63;;;-144.37;100.00
36258;BME280;22294;52.044;4.582;2023-01-26T02:48:21;78708.50;;;-144.37;100.00
36258;BME280;22294;52.044;4.582;2023-01-26T02:51:06;78706.44;;;-144.37;100.00
36258;BME280;22294;52.044;4.582;2023-01-26T02:53:32;78718.72;;;-144.37;100.00
36258;BME280;22294;52.044;4.582;2023-01-26T02:55:57;78722.81;;;-144.37;100.00
36258;BME280;22294;52.044;4.582;2023-01-26T02:58:22;78718.72;;;-144.37;100.00
36258;BME280;22294;52.044;4.582;2023-01-26T03:00:48;78714.63;;;-144.37;100.00
36258;BME280;22294;52.044;4.582;2023-01-26T03:03:15;78722.81;;;-144.37;100.00
36258;BME280;22294;52.044;4.582;2023-01-26T03:05:42;78724.88;;;-144.37;100.00
36258;BME280;22294;52.044;4.582;2023-01-26T03:08:08;78720.78;;;-144.37;100.00
36258;BME280;22294;52.044;4.582;2023-01-26T03:10:33;78716.69;;;-144.37;100.00
36258;BME280;22294;52.044;4.582;2023-01-26T03:12:59;78712.59;;;-144.37;100.00
36258;BME280;22294;52.044;4.582;2023-01-26T03:15:25;78714.63;;;-144.37;100.00
36258;BME280;22294;52.044;4.582;2023-01-26T03:18:10;78718.72;;;-144.37;100.00
36258;BME280;22294;52.044;4.582;2023-01-26T03:20:54;78714.63;;;-144.37;100.00
36258;BME280;22294;52.044;4.582;2023-01-26T03:23:39;78716.69;;;-144.37;100.00
36258;BME280;22294;52.044;4.582;2023-01-26T03:26:23;78710.53;;;-144.37;100.00
36258;BME280;22294;52.044;4.582;2023-01-26T03:29:07;78710.53;;;-144.37;100.00
36258;BME280;22294;52.044;4.582;2023-01-26T03:31:33;78712.59;;;-144.37;100.00
36258;BME280;22294;52.044;4.582;2023-01-26T03:33:58;78704.41;;;-144.37;100.00
36258;BME280;22294;52.044;4.582;2023-01-26T03:36:23;78700.31;;;-144.37;100.00
36258;BME280;22294;52.044;4.582;2023-01-26T03:38:49;78708.50;;;-144.37;100.00
36258;BME280;22294;52.044;4.582;2023-01-26T03:41:14;78708.50;;;-144.37;100.00
36258;BME280;22294;52.044;4.582;2023-01-26T03:43:57;78710.53;;;-144.37;100.00
36258;BME280;22294;52.044;4.582;2023-01-26T03:46:42;78710.53;;;-144.37;100.00
36258;BME280;22294;52.044;4.582;2023-01-26T03:49:26;78702.34;;;-144.37;100.00
36258;BME280;22294;52.044;4.582;2023-01-26T03:52:10;78698.25;;;-144.37;100.00
36258;BME280;22294;52.044;4.582;2023-01-26T03:54:54;78698.25;;;-144.37;100.00
36258;BME280;22294;52.044;4.582;2023-01-26T03:57:38;78698.25;;;-144.37;100.00
36258;BME280;22294;52.044;4.582;2023-01-26T04:00:03;78698.25;;;-144.37;100.00
36258;BME280;22294;52.044;4.582;2023-01-26T04:02:30;78698.25;;;-144.37;100.00
36258;BME280;22294;52.044;4.582;2023-01-26T04:05:14;78696.22;;;-144.37;100.00
36258;BME280;22294;52.044;4.582;2023-01-26T04:08:05;78692.13;;;-144.37;100.00
36258;BME280;22294;52.044;4.582;2023-01-26T04:10:52;78688.03;;;-144.37;100.00
36258;BME280;22294;52.044;4.582;2023-01-26T04:13:18;78690.06;;;-144.37;100.00
36258;BME280;22294;52.044;4.582;2023-01-26T04:16:03;78690.06;;;-144.37;100.00
36258;BME280;22294;52.044;4.582;2023-01-26T04:18:47;78690.06;;;-144.37;100.00
36258;BME280;22294;52.044;4.582;2023-01-26T04:21:31;78690.06;;;-144.37;100.00
36258;BME280;22294;52.044;4.582;2023-01-26T04:23:58;78702.34;;;-144.37;100.00
36258;BME280;22294;52.044;4.582;2023-01-26T04:26:26;78690.06;;;-144.37;100.00
36258;BME280;22294;52.044;4.582;2023-01-26T04:28:59;78698.25;;;-144.37;100.00
36258;BME280;22294;52.044;4.582;2023-01-26T04:31:24;78690.06;;;-144.37;100.00
36258;BME280;22294;52.044;4.582;2023-01-26T04:33:49;78692.13;;;-144.37;100.00
36258;BME280;22294;52.044;4.582;2023-01-26T04:36:14;78683.94;;;-144.37;100.00
36258;BME280;22294;52.044;4.582;2023-01-26T04:38:40;78679.84;;;-144.37;100.00
36258;BME280;22294;52.044;4.582;2023-01-26T04:41:05;78673.69;;;-144.37;100.00
36258;BME280;22294;52.044;4.582;2023-01-26T04:43:30;78671.66;;;-144.37;100.00
36258;BME280;22294;52.044;4.582;2023-01-26T04:46:05;78671.66;;;-144.37;100.00
36258;BME280;22294;52.044;4.582;2023-01-26T04:48:31;78669.59;;;-144.37;100.00
36258;BME280;22294;52.044;4.582;2023-01-26T04:50:58;78667.56;;;-144.37;100.00
36258;BME280;22294;52.044;4.582;2023-01-26T04:53:25;78663.47;;;-144.37;100.00
36258;BME280;22294;52.044;4.582;2023-01-26T04:55:51;78659.38;;;-144.37;100.00
36258;BME280;22294;52.044;4.582;2023-01-26T04:58:17;78665.50;;;-144.37;100.00
36258;BME280;22294;52.044;4.582;2023-01-26T05:00:42;78659.38;;;-144.37;100.00
36258;BME280;22294;52.044;4.582;2023-01-26T05:03:08;78663.47;;;-144.37;100.00
36258;BME280;22294;52.044;4.582;2023-01-26T05:05:37;78659.38;;;-144.37;100.00
36258;BME280;22294;52.044;4.582;2023-01-26T05:08:04;78649.16;;;-144.37;100.00
36258;BME280;22294;52.044;4.582;2023-01-26T05:10:30;78655.28;;;-144.37;100.00
36258;BME280;22294;52.044;4.582;2023-01-26T05:12:55;78649.16;;;-144.37;100.00
36258;BME280;22294;52.044;4.582;2023-01-26T05:15:21;78653.25;;;-144.37;100.00
36258;BME280;22294;52.044;4.582;2023-01-26T05:17:46;78657.34;;;-144.37;100.00
36258;BME280;22294;52.044;4.582;2023-01-26T05:20:12;78651.19;;;-144.37;100.00
36258;BME280;22294;52.044;4.582;2023-01-26T05:22:38;78649.16;;;-144.37;100.00
36258;BME280;22294;52.044;4.582;2023-01-26T05:25:03;78649.16;;;-144.37;100.00
36258;BME280;22294;52.044;4.582;2023-01-26T05:27:28;78645.06;;;-144.37;100.00
36258;BME280;22294;52.044;4.582;2023-01-26T05:29:54;78649.16;;;-144.37;100.00
36258;BME280;22294;52.044;4.582;2023-01-26T05:32:24;78638.91;;;-144.37;100.00
36258;BME280;22294;52.044;4.582;2023-01-26T05:34:51;78643.00;;;-144.37;100.00
36258;BME280;22294;52.044;4.582;2023-01-26T05:37:16;78634.81;;;-144.37;100.00
36258;BME280;22294;52.044;4.582;2023-01-26T05:39:41;78643.00;;;-144.37;100.00
36258;BME280;22294;52.044;4.582;2023-01-26T05:42:07;78636.88;;;-144.37;100.00
36258;BME280;22294;52.044;4.582;2023-01-26T05:44:32;78628.69;;;-144.37;100.00
36258;BME280;22294;52.044;4.582;2023-01-26T05:46:58;78624.59;;;-144.37;100.00
36258;BME280;22294;52.044;4.582;2023-01-26T05:49:24;78616.41;;;-144.37;100.00
36258;BME280;22294;52.044;4.582;2023-01-26T05:51:49;78616.41;;;-144.37;100.00
36258;BME280;22294;52.044;4.582;2023-01-26T05:54:14;78616.41;;;-144.37;100.00
36258;BME280;22294;52.044;4.582;2023-01-26T05:56:39;78614.34;;;-144.37;100.00
36258;BME280;22294;52.044;4.582;2023-01-26T05:59:05;78620.50;;;-144.37;100.00
36258;BME280;22294;52.044;4.582;2023-01-26T06:01:30;78618.44;;;-144.37;100.00
36258;BME280;22294;52.044;4.582;2023-01-26T06:03:55;78614.34;;;-144.37;100.00
36258;BME280;22294;52.044;4.582;2023-01-26T06:06:21;78612.31;;;-144.37;100.00
36258;BME280;22294;52.044;4.582;2023-01-26T06:08:46;78612.31;;;-144.37;100.00
36258;BME280;22294;52.044;4.582;2023-01-26T06:11:11;78606.16;;;-144.37;100.00
36258;BME280;22294;52.044;4.582;2023-01-26T06:13:36;78602.06;;;-144.37;100.00
36258;BME280;22294;52.044;4.582;2023-01-26T06:16:02;78600.03;;;-144.37;100.00
36258;BME280;22294;52.044;4.582;2023-01-26T06:18:27;78597.97;;;-144.37;100.00
36258;BME280;22294;52.044;4.582;2023-01-26T06:20:52;78593.88;;;-144.37;100.00
36258;BME280;22294;52.044;4.582;2023-01-26T06:23:18;78585.72;;;-144.37;100.00
36258;BME280;22294;52.044;4.582;2023-01-26T06:25:43;78581.63;;;-144.37;100.00
36258;BME280;22294;52.044;4.582;2023-01-26T06:28:08;78583.66;;;-144.37;100.00
36258;BME280;22294;52.044;4.582;2023-01-26T06:30:33;78587.75;;;-144.37;100.00
36258;BME280;22294;52.044;4.582;2023-01-26T06:32:59;78589.81;;;-144.37;100.00
36258;BME280;22294;52.044;4.582;2023-01-26T06:35:25;78587.75;;;-144.37;100.00
36258;BME280;22294;52.044;4.582;2023-01-26T06:37:51;78579.56;;;-144.37;100.00
36258;BME280;22294;52.044;4.582;2023-01-26T06:40:16;78583.66;;;-144.37;100.00
36258;BME280;22294;52.044;4.582;2023-01-26T06:42:49;78579.56;;;-144.37;100.00
36258;BME280;22294;52.044;4.582;2023-01-26T06:45:16;78583.66;;;-144.37;100.00
36258;BME280;22294;52.044;4.582;2023-01-26T06:47:49;78585.72;;;-144.37;100.00
36258;BME280;22294;52.044;4.582;2023-01-26T06:50:18;78591.84;;;-144.37;100.00
36258;BME280;22294;52.044;4.582;2023-01-26T06:52:46;78589.81;;;-144.37;100.00
36258;BME280;22294;52.044;4.582;2023-01-26T06:55:21;78585.72;;;-144.37;100.00
36258;BME280;22294;52.044;4.582;2023-01-26T06:57:48;78587.75;;;-144.37;100.00
36258;BME280;22294;52.044;4.582;2023-01-26T07:00:16;78585.72;;;-144.37;100.00
36258;BME280;22294;52.044;4.582;2023-01-26T07:02:43;78583.66;;;-144.37;100.00
36258;BME280;22294;52.044;4.582;2023-01-26T07:05:08;78577.53;;;-144.37;100.00
36258;BME280;22294;52.044;4.582;2023-01-26T07:07:34;78565.25;;;-144.37;100.00
36258;BME280;22294;52.044;4.582;2023-01-26T07:09:59;78563.19;;;-144.37;100.00
36258;BME280;22294;52.044;4.582;2023-01-26T07:12:24;78550.91;;;-144.37;100.00
36258;BME280;22294;52.044;4.582;2023-01-26T07:14:50;78538.63;;;-144.37;100.00
36258;BME280;22294;52.044;4.582;2023-01-26T07:17:16;78524.31;;;-144.37;100.00
36258;BME280;22294;52.044;4.582;2023-01-26T07:19:41;78516.13;;;-144.37;100.00
36258;BME280;22294;52.044;4.582;2023-01-26T07:22:07;78501.81;;;-144.37;100.00
36258;BME280;22294;52.044;4.582;2023-01-26T07:24:32;78501.81;;;-144.37;100.00
36258;BME280;22294;52.044;4.582;2023-01-26T07:26:57;78501.81;;;-144.37;100.00
36258;BME280;22294;52.044;4.582;2023-01-26T07:29:23;78499.75;;;-144.37;100.00
36258;BME280;22294;52.044;4.582;2023-01-26T07:31:48;78493.63;;;-144.37;100.00
36258;BME280;22294;52.044;4.582;2023-01-26T07:34:13;78489.53;;;-144.37;100.00
36258;BME280;22294;52.044;4.582;2023-01-26T07:36:39;78483.38;;;-144.37;100.00
36258;BME280;22294;52.044;4.582;2023-01-26T07:39:05;78495.66;;;-144.37;100.00
36258;BME280;22294;52.044;4.582;2023-01-26T07:41:31;78493.63;;;-144.37;100.00
36258;BME280;22294;52.044;4.582;2023-01-26T07:43:56;78491.56;;;-144.37;100.00
36258;BME280;22294;52.044;4.582;2023-01-26T07:46:22;78493.63;;;-144.37;100.00
36258;BME280;22294;52.044;4.582;2023-01-26T07:48:48;78501.81;;;-144.37;100.00
36258;BME280;22294;52.044;4.582;2023-01-26T07:51:14;78505.91;;;-144.37;100.00
36258;BME280;22294;52.044;4.582;2023-01-26T07:53:39;78507.94;;;-144.37;100.00
36258;BME280;22294;52.044;4.582;2023-01-26T07:58:33;78507.94;;;-144.37;100.00
36258;BME280;22294;52.044;4.582;2023-01-26T08:01:11;78514.09;;;-144.37;100.00
36258;BME280;22294;52.044;4.582;2023-01-26T08:03:38;78518.19;;;-144.37;100.00
36258;BME280;22294;52.044;4.582;2023-01-26T08:06:05;78530.44;;;-144.37;100.00
36258;BME280;22294;52.044;4.582;2023-01-26T08:08:30;78524.31;;;-144.37;100.00
36258;BME280;22294;52.044;4.582;2023-01-26T08:10:59;78526.38;;;-144.37;100.00
36258;BME280;22294;52.044;4.582;2023-01-26T08:13:26;78522.28;;;-144.37;100.00
36258;BME280;22294;52.044;4.582;2023-01-26T08:15:52;78530.44;;;-144.37;100.00
36258;BME280;22294;52.044;4.582;2023-01-26T08:18:17;78526.38;;;-144.37;100.00
36258;BME280;22294;52.044;4.582;2023-01-26T08:20:49;78522.28;;;-144.37;100.00
36258;BME280;22294;52.044;4.582;2023-01-26T08:23:14;78522.28;;;-144.37;100.00
36258;BME280;22294;52.044;4.582;2023-01-26T08:25:39;78514.09;;;-144.37;100.00
36258;BME280;22294;52.044;4.582;2023-01-26T08:28:05;78514.09;;;-144.37;100.00
36258;BME280;22294;52.044;4.582;2023-01-26T08:30:30;78505.91;;;-144.37;100.00
36258;BME280;22294;52.044;4.582;2023-01-26T08:32:56;78510.00;;;-144.37;100.00
36258;BME280;22294;52.044;4.582;2023-01-26T08:35:21;78514.09;;;-144.37;100.00
36258;BME280;22294;52.044;4.582;2023-01-26T08:37:47;78518.19;;;-144.37;100.00
36258;BME280;22294;52.044;4.582;2023-01-26T08:40:12;78524.31;;;-144.37;100.00
36258;BME280;22294;52.044;4.582;2023-01-26T08:42:37;78522.28;;;-144.37;100.00
36258;BME280;22294;52.044;4.582;2023-01-26T08:45:03;78532.50;;;-144.37;100.00
36258;BME280;22294;52.044;4.582;2023-01-26T08:47:28;78528.41;;;-144.37;100.00
36258;BME280;22294;52.044;4.582;2023-01-26T08:49:54;78530.44;;;-144.37;100.00
36258;BME280;22294;52.044;4.582;2023-01-26T08:52:19;78526.38;;;-144.37;100.00
36258;BME280;22294;52.044;4.582;2023-01-26T08:54:45;78518.19;;;-144.37;100.00
36258;BME280;22294;52.044;4.582;2023-01-26T08:57:11;78522.28;;;-144.37;100.00
36258;BME280;22294;52.044;4.582;2023-01-26T08:59:36;78518.19;;;-144.37;100.00
36258;BME280;22294;52.044;4.582;2023-01-26T09:02:01;78510.00;;;-144.37;100.00
36258;BME280;22294;52.044;4.582;2023-01-26T09:04:27;78499.75;;;-144.37;100.00
36258;BME280;22294;52.044;4.582;2023-01-26T09:06:52;78481.34;;;-144.37;100.00
36258;BME280;22294;52.044;4.582;2023-01-26T09:09:17;78487.47;;;-144.37;100.00
36258;BME280;22294;52.044;4.582;2023-01-26T09:11:43;78479.28;;;-144.37;100.00
36258;BME280;22294;52.044;4.582;2023-01-26T09:14:08;78477.25;;;-144.37;100.00
36258;BME280;22294;52.044;4.582;2023-01-26T09:16:34;78477.25;;;-144.37;100.00
36258;BME280;22294;52.044;4.582;2023-01-26T09:18:59;78469.06;;;-144.37;100.00
36258;BME280;22294;52.044;4.582;2023-01-26T09:21:25;78469.06;;;-144.37;100.00
36258;BME280;22294;52.044;4.582;2023-01-26T09:23:50;78477.25;;;-144.37;100.00
36258;BME280;22294;52.044;4.582;2023-01-26T09:26:16;78475.19;;;-144.37;100.00
36258;BME280;22294;52.044;4.582;2023-01-26T09:28:41;78475.19;;;-144.37;100.00
36258;BME280;22294;52.044;4.582;2023-01-26T09:31:09;78479.28;;;-144.37;100.00
36258;BME280;22294;52.044;4.582;2023-01-26T09:33:35;78481.34;;;-144.37;100.00
36258;BME280;22294;52.044;4.582;2023-01-26T09:36:05;78477.25;;;-144.37;100.00
36258;BME280;22294;52.044;4.582;2023-01-26T09:38:31;78473.16;;;-144.37;100.00
36258;BME280;22294;52.044;4.582;2023-01-26T09:52:05;78399.50;;;-144.37;100.00
36258;BME280;22294;52.044;4.582;2023-01-26T09:54:39;78387.22;;;-144.37;100.00
36258;BME280;22294;52.044;4.582;2023-01-26T09:57:24;78379.03;;;-144.37;100.00
36258;BME280;22294;52.044;4.582;2023-01-26T10:00:08;78368.78;;;-144.37;100.00
36258;BME280;22294;52.044;4.582;2023-01-26T10:03:07;78346.28;;;-144.37;100.00
36258;BME280;22294;52.044;4.582;2023-01-26T10:05:46;78336.06;;;-144.37;100.00
36258;BME280;22294;52.044;4.582;2023-01-26T10:08:14;78313.53;;;-144.37;100.00
36258;BME280;22294;52.044;4.582;2023-01-26T10:10:44;78307.41;;;-144.37;100.00
36258;BME280;22294;52.044;4.582;2023-01-26T10:13:14;78295.13;;;-144.37;100.00
36258;BME280;22294;52.044;4.582;2023-01-26T10:15:42;78286.94;;;-144.37;100.00
36258;BME280;22294;52.044;4.582;2023-01-26T10:18:26;78276.72;;;-144.37;100.00
36258;BME280;22294;52.044;4.582;2023-01-26T10:20:54;78270.56;;;-144.37;100.00
36258;BME280;22294;52.044;4.582;2023-01-26T10:23:24;78264.44;;;-144.37;100.00
36258;BME280;22294;52.044;4.582;2023-01-26T10:25:51;78256.25;;;-144.37;100.00
36258;BME280;22294;52.044;4.582;2023-01-26T10:28:19;78250.09;;;-144.37;100.00
36258;BME280;22294;52.044;4.582;2023-01-26T10:30:47;78246.03;;;-144.37;100.00
36258;BME280;22294;52.044;4.582;2023-01-26T10:33:18;78246.03;;;-144.37;100.00
36258;BME280;22294;52.044;4.582;2023-01-26T10:35:44;78233.75;;;-144.37;100.00
36258;BME280;22294;52.044;4.582;2023-01-26T10:38:46;78223.50;;;-144.37;100.00
36258;BME280;22294;52.044;4.582;2023-01-26T10:44:01;78225.56;;;-144.37;100.00
36258;BME280;22294;52.044;4.582;2023-01-26T10:46:31;78209.19;;;-144.37;100.00
36258;BME280;22294;52.044;4.582;2023-01-26T10:49:00;78201.00;;;-144.37;100.00
36258;BME280;22294;52.044;4.582;2023-01-26T10:51:31;78192.81;;;-144.37;100.00
36258;BME280;22294;52.044;4.582;2023-01-26T10:56:46;78172.34;;;-144.37;100.00
36258;BME280;22294;52.044;4.582;2023-01-26T10:59:19;78164.16;;;-144.37;100.00
36258;BME280;22294;52.044;4.582;2023-01-26T11:01:51;78162.13;;;-144.37;100.00
36258;BME280;22294;52.044;4.582;2023-01-26T11:04:16;78170.31;;;-144.37;100.00
36258;BME280;22294;52.044;4.582;2023-01-26T11:06:43;78155.97;;;-144.37;100.00
36258;BME280;22294;52.044;4.582;2023-01-26T11:09:09;78158.03;;;-144.37;100.00
36258;BME280;22294;52.044;4.582;2023-01-26T11:11:35;78155.97;;;-144.37;100.00
36258;BME280;22294;52.044;4.582;2023-01-26T11:14:17;78155.97;;;-144.37;100.00
36258;BME280;22294;52.044;4.582;2023-01-26T11:16:48;78139.63;;;-144.37;100.00
36258;BME280;22294;52.044;4.582;2023-01-26T11:22:27;78137.56;;;-144.37;100.00
36258;BME280;22294;52.044;4.582;2023-01-26T11:25:02;78125.28;;;-144.37;100.00
36258;BME280;22294;52.044;4.582;2023-01-26T11:27:35;78131.44;;;-144.37;100.00
36258;BME280;22294;52.044;4.582;2023-01-26T11:30:08;78129.38;;;-144.37;100.00
36258;BME280;22294;52.044;4.582;2023-01-26T11:40:46;78086.41;;;-144.37;98.56
36258;BME280;22294;52.044;4.582;2023-01-26T11:43:41;78082.31;;;-144.37;96.91
36258;BME280;22294;52.044;4.582;2023-01-26T11:49:47;78057.78;;;-144.37;93.64
36258;BME280;22294;52.044;4.582;2023-01-26T11:52:35;78035.25;;;-144.37;93.29
36258;BME280;22294;52.044;4.582;2023-01-26T11:57:55;78031.16;;;-144.37;93.46
36258;BME280;22294;52.044;4.582;2023-01-26T12:00:26;78043.44;;;-144.37;93.88
36258;BME280;22294;52.044;4.582;2023-01-26T12:03:02;78055.72;;;-144.37;96.70
36258;BME280;22294;52.044;4.582;2023-01-26T12:05:38;78053.69;;;-144.37;98.38
36258;BME280;22294;52.044;4.582;2023-01-26T12:08:25;78059.81;;;-144.37;94.58
36258;BME280;22294;52.044;4.582;2023-01-26T12:11:07;78035.25;;;-144.37;96.37
36258;BME280;22294;52.044;4.582;2023-01-26T12:13:57;78027.06;;;-144.37;98.61
36258;BME280;22294;52.044;4.582;2023-01-26T12:22:28;78010.72;;;-144.37;99.11
36258;BME280;22294;52.044;4.582;2023-01-26T12:25:12;78002.53;;;-144.37;98.91
36258;BME280;22294;52.044;4.582;2023-01-26T12:27:44;77992.28;;;-144.37;97.78
36258;BME280;22294;52.044;4.582;2023-01-26T12:30:23;77990.25;;;-144.37;96.48
36258;BME280;22294;52.044;4.582;2023-01-26T12:32:50;78000.47;;;-144.37;93.92
36258;BME280;22294;52.044;4.582;2023-01-26T12:35:29;77990.25;;;-144.37;91.57
36258;BME280;22294;52.044;4.582;2023-01-26T12:38:02;77975.94;;;-144.37;92.41
36258;BME280;22294;52.044;4.582;2023-01-26T12:41:00;77967.75;;;-144.37;92.02
36258;BME280;22294;52.044;4.582;2023-01-26T12:43:46;77973.88;;;-144.37;91.22
36258;BME280;22294;52.044;4.582;2023-01-26T12:46:17;77984.09;;;-144.37;91.04
36258;BME280;22294;52.044;4.582;2023-01-26T12:48:51;77973.88;;;-144.37;91.26
36258;BME280;22294;52.044;4.582;2023-01-26T12:51:25;77969.78;;;-144.37;92.12
36258;BME280;22294;52.044;4.582;2023-01-26T12:54:03;77982.06;;;-144.37;95.32
36258;BME280;22294;52.044;4.582;2023-01-26T12:56:38;77975.94;;;-144.37;98.38
36258;BME280;22294;52.044;4.582;2023-01-26T12:59:15;77994.34;;;-144.37;96.22
36258;BME280;22294;52.044;4.582;2023-01-26T13:01:42;78002.53;;;-144.37;97.66
36258;BME280;22294;52.044;4.582;2023-01-26T13:04:10;78010.72;;;-144.37;98.30
36258;BME280;22294;52.044;4.582;2023-01-26T13:06:36;78004.56;;;-144.37;98.61
36258;BME280;22294;52.044;4.582;2023-01-26T13:09:18;77998.44;;;-144.37;98.21
36258;BME280;22294;52.044;4.582;2023-01-26T13:11:45;77998.44;;;-144.37;97.51
36258;BME280;22294;52.044;4.582;2023-01-26T13:14:33;77992.28;;;-144.37;98.79
36258;BME280;22294;52.044;4.582;2023-01-26T13:17:48;77988.19;;;-144.37;99.82
36258;BME280;22294;52.044;4.582;2023-01-26T13:22:52;77973.88;;;-144.37;95.51
36258;BME280;22294;52.044;4.582;2023-01-26T13:25:27;77965.69;;;-144.37;92.78
36258;BME280;22294;52.044;4.582;2023-01-26T13:28:00;77982.06;;;-144.37;92.96
36258;BME280;22294;52.044;4.582;2023-01-26T13:30:31;77982.06;;;-144.37;92.56